»·PEaware :: WAT380 KLAX-KRNO

WAT380 :: KLAX-KRNO

FLIGHT INFORMATION

Flight Status: Arrived
Operator:
Walker Air Transport
More flights by this operator :: More flights under this callsign
Pilot: Spencer M. (27733)
Aircraft: CESSNA 550 CITATION 2/S2/BRAVO
(C550)
More flights by this aircraft type
Origin: KLAX Los Angeles Intl
United States
Destination: KRNO Reno/Tahoe Intl
United States
More flights between these airports :: More routes between these airports
Route: LADYJ4 CSTRO FMG
File this flight plan on PilotEdge
Remarks:
Altitude:
(Current/Filed)
32,000ft
Speed:
(Current/Filed)
340kts
Departed: 03-Nov-20 01:33 PM
Arrived: 03-Nov-20 02:52 PM
Distance/Time
Traveled:
340nm/1:19
Distance/Time
To Go:
Arrived

Flight Plot

Page will automatically refresh every two minutes.

Flight plan parsing failed; only flown route is shown


Map Options




Map Legend


Flown Route
Filed Route
Departure Airport
Arrival Airport
Navaid (VOR, NDB)
Fix

Horizontal Profiles

Position Reports

Time Latitude Longitude Heading Altitude Ground
Speed
03-Nov-20 13:15 33.933657 -118.399883 174 130ft 0kts
03-Nov-20 13:16 33.933657 -118.399883 174 130ft 0kts
03-Nov-20 13:17 33.933657 -118.399883 174 130ft 0kts
03-Nov-20 13:18 33.933657 -118.399883 174 130ft 0kts
03-Nov-20 13:19 33.933657 -118.399883 174 130ft 0kts
03-Nov-20 13:20 33.933657 -118.399883 174 130ft 0kts
03-Nov-20 13:21 33.933657 -118.399883 174 130ft 0kts
03-Nov-20 13:22 33.933657 -118.399883 174 130ft 0kts
03-Nov-20 13:23 33.933657 -118.399883 174 130ft 0kts
03-Nov-20 13:24 33.933657 -118.399883 174 130ft 0kts
03-Nov-20 13:25 33.933484 -118.399419 56 130ft 6kts
03-Nov-20 13:26 33.934600 -118.397693 81 130ft 7kts
03-Nov-20 13:27 33.934895 -118.394774 83 130ft 10kts
03-Nov-20 13:28 33.935313 -118.390649 83 130ft 14kts
03-Nov-20 13:29 33.935833 -118.385578 83 130ft 15kts
03-Nov-20 13:31 33.936473 -118.382817 6 130ft 0kts
03-Nov-20 13:32 33.936996 -118.382908 338 130ft 8kts
03-Nov-20 13:33 33.934655 -118.409114 261 664ft 158kts
03-Nov-20 13:34 33.928221 -118.476114 268 2812ft 240kts
03-Nov-20 13:35 33.923305 -118.563092 264 4933ft 276kts
03-Nov-20 13:36 33.944584 -118.645391 326 7033ft 272kts
03-Nov-20 13:37 34.014210 -118.676835 4 8002ft 281kts
03-Nov-20 13:38 34.090777 -118.668813 11 7999ft 274kts
03-Nov-20 13:39 34.165073 -118.651183 11 8146ft 265kts
03-Nov-20 13:40 34.236026 -118.634612 7 10146ft 265kts
03-Nov-20 13:41 34.310050 -118.647312 349 12081ft 276kts
03-Nov-20 13:42 34.386577 -118.665081 348 13887ft 283kts
03-Nov-20 13:43 34.465254 -118.682140 349 15000ft 304kts
03-Nov-20 13:44 34.551297 -118.698600 349 15983ft 313kts
03-Nov-20 13:45 34.637084 -118.715336 348 17488ft 312kts
03-Nov-20 13:46 34.721629 -118.733820 334 18986ft 305kts
03-Nov-20 13:47 34.795091 -118.783170 328 20499ft 298kts
03-Nov-20 13:48 34.866450 -118.832339 328 21999ft 292kts
03-Nov-20 13:49 34.936758 -118.880750 328 23099ft 299kts
03-Nov-20 13:49 34.998987 -118.923685 328 23772ft 307kts
03-Nov-20 13:51 35.083498 -118.982003 327 25508ft 293kts
03-Nov-20 13:51 35.141601 -119.022214 327 26753ft 285kts
03-Nov-20 13:53 35.220548 -119.076960 327 28382ft 276kts
03-Nov-20 13:53 35.275209 -119.114939 326 29540ft 268kts
03-Nov-20 13:55 35.349151 -119.166400 326 31160ft 255kts
03-Nov-20 13:55 35.399639 -119.201636 325 32024ft 256kts
03-Nov-20 13:56 35.469206 -119.237170 351 32031ft 296kts
03-Nov-20 13:57 35.553856 -119.245821 351 31991ft 314kts
03-Nov-20 13:58 35.642607 -119.254521 351 31990ft 326kts
03-Nov-20 13:59 35.733827 -119.263442 351 31989ft 333kts
03-Nov-20 14:00 35.826263 -119.272521 351 31989ft 337kts
03-Nov-20 14:01 35.920078 -119.281772 352 31993ft 339kts
03-Nov-20 14:02 36.014130 -119.291069 352 31999ft 340kts
03-Nov-20 14:03 36.108048 -119.300377 352 31998ft 339kts
03-Nov-20 14:04 36.201890 -119.309695 352 31999ft 338kts
03-Nov-20 14:05 36.295590 -119.319029 352 31999ft 338kts
03-Nov-20 14:06 36.389071 -119.328366 352 31999ft 338kts
03-Nov-20 14:07 36.482208 -119.337692 352 31998ft 337kts
03-Nov-20 14:08 36.575412 -119.347051 352 32003ft 336kts
03-Nov-20 14:09 36.668150 -119.356368 352 32007ft 335kts
03-Nov-20 14:10 36.760968 -119.365736 352 32006ft 334kts
03-Nov-20 14:11 36.853324 -119.375069 352 32006ft 333kts
03-Nov-20 14:12 36.945421 -119.384405 352 32006ft 332kts
03-Nov-20 14:13 37.037083 -119.393715 352 32005ft 331kts
03-Nov-20 14:14 37.128965 -119.403073 352 32009ft 330kts
03-Nov-20 14:15 37.220349 -119.412396 352 32040ft 329kts
03-Nov-20 14:16 37.311341 -119.421706 352 32081ft 328kts
03-Nov-20 14:17 37.402154 -119.431025 353 32081ft 328kts
03-Nov-20 14:18 37.492907 -119.440359 353 31986ft 330kts
03-Nov-20 14:19 37.584848 -119.449863 353 30877ft 334kts
03-Nov-20 14:20 37.677593 -119.459448 354 29766ft 336kts
03-Nov-20 14:21 37.770740 -119.469095 354 28650ft 337kts
03-Nov-20 14:22 37.864081 -119.478794 354 27534ft 338kts
03-Nov-20 14:23 37.957740 -119.488552 354 26414ft 339kts
03-Nov-20 14:24 38.051450 -119.498338 355 25299ft 344kts
03-Nov-20 14:25 38.148023 -119.508475 355 24205ft 351kts
03-Nov-20 14:26 38.243363 -119.518435 355 24059ft 341kts
03-Nov-20 14:27 38.336744 -119.528247 355 24083ft 335kts
03-Nov-20 14:28 38.429766 -119.538066 355 24021ft 335kts
03-Nov-20 14:29 38.522116 -119.547838 355 24018ft 333kts
03-Nov-20 14:30 38.614338 -119.557617 355 24017ft 333kts
03-Nov-20 14:31 38.705938 -119.567355 355 22486ft 327kts
03-Nov-20 14:32 38.795028 -119.576836 355 20777ft 316kts
03-Nov-20 14:33 38.881387 -119.586057 354 19065ft 308kts
03-Nov-20 14:34 38.966158 -119.595149 354 17354ft 304kts
03-Nov-20 14:35 39.049174 -119.604010 354 15646ft 291kts
03-Nov-20 14:36 39.127696 -119.612418 354 14004ft 276kts
03-Nov-20 14:37 39.200544 -119.620245 354 14007ft 261kts
03-Nov-20 14:38 39.276196 -119.628486 354 13129ft 278kts
03-Nov-20 14:39 39.352697 -119.636890 354 11837ft 268kts
03-Nov-20 14:40 39.423457 -119.644422 354 10428ft 246kts
03-Nov-20 14:41 39.489283 -119.640057 2 9099ft 229kts
03-Nov-20 14:42 39.547655 -119.635444 2 9007ft 190kts
03-Nov-20 14:43 39.597725 -119.631310 2 9017ft 179kts
03-Nov-20 14:44 39.645450 -119.637552 302 8941ft 181kts
03-Nov-20 14:45 39.644039 -119.702611 256 8499ft 178kts
03-Nov-20 14:46 39.619034 -119.751527 225 8197ft 125kts
03-Nov-20 14:47 39.591826 -119.770123 179 6711ft 115kts
03-Nov-20 14:48 39.560258 -119.769237 179 5567ft 110kts
03-Nov-20 14:49 39.528920 -119.769188 178 4893ft 115kts
03-Nov-20 14:50 39.499355 -119.769269 179 4420ft 74kts
03-Nov-20 14:51 39.497379 -119.770850 270 4420ft 13kts
03-Nov-20 14:52 39.502607 -119.771512 355 4420ft 23kts

Navigation Log

Ident Type
Flight plan parsing failed, navigation log unavailable